createdAt,value
2024-01-18T00:02:10.996Z,7.10
2024-01-18T00:04:42.943Z,9.27
2024-01-18T00:07:14.170Z,10.90
2024-01-18T00:09:44.269Z,11.30
2024-01-18T00:12:14.654Z,10.45
2024-01-18T00:14:44.785Z,11.90
2024-01-18T00:17:15.115Z,9.20
2024-01-18T00:19:45.343Z,6.72
2024-01-18T00:22:16.384Z,9.98
2024-01-18T00:24:47.400Z,10.23
2024-01-18T00:27:17.757Z,9.35
2024-01-18T00:29:47.835Z,9.07
2024-01-18T00:32:18.175Z,11.15
2024-01-18T00:34:48.151Z,11.02
2024-01-18T00:37:18.500Z,11.20
2024-01-18T00:39:49.145Z,12.40
2024-01-18T00:42:19.122Z,12.80
2024-01-18T00:44:51.834Z,11.73
2024-01-18T00:49:51.719Z,9.15
2024-01-18T00:52:21.605Z,10.25
2024-01-18T00:54:52.220Z,11.15
2024-01-18T00:57:23.161Z,10.10
2024-01-18T00:59:54.508Z,11.05
2024-01-18T01:02:25.351Z,6.07
2024-01-18T01:04:55.719Z,11.20
2024-01-18T01:07:27.268Z,14.13
2024-01-18T01:09:58.029Z,11.75
2024-01-18T01:12:27.959Z,14.80
2024-01-18T01:14:58.459Z,10.18
2024-01-18T01:17:28.343Z,13.40
2024-01-18T01:20:00.059Z,11.55
2024-01-18T01:25:00.625Z,9.68
2024-01-18T01:27:31.838Z,11.38
2024-01-18T01:30:02.010Z,10.77
2024-01-18T01:32:32.362Z,8.40
2024-01-18T01:35:02.389Z,11.40
2024-01-18T01:37:32.708Z,10.95
2024-01-18T01:40:04.051Z,13.73
2024-01-18T01:42:34.620Z,13.15
2024-01-18T01:45:05.248Z,13.00
2024-01-18T01:47:35.760Z,13.77
2024-01-18T01:50:06.900Z,14.30
2024-01-18T01:52:39.392Z,14.98
2024-01-18T01:55:14.078Z,14.38
2024-01-18T01:57:50.158Z,14.05
2024-01-18T02:00:20.867Z,15.70
2024-01-18T02:02:52.301Z,15.65
2024-01-18T02:05:25.382Z,16.25
2024-01-18T02:07:57.725Z,16.33
2024-01-18T02:10:27.861Z,15.73
2024-01-18T02:13:00.648Z,17.05
2024-01-18T02:18:00.429Z,16.60
2024-01-18T02:20:31.460Z,16.00
2024-01-18T02:23:03.904Z,11.30
2024-01-18T02:25:35.372Z,14.48
2024-01-18T02:28:05.427Z,14.48
2024-01-18T02:30:35.309Z,14.70
2024-01-18T02:33:05.923Z,11.70
2024-01-18T02:35:36.619Z,10.32
2024-01-18T02:38:07.553Z,9.73
2024-01-18T02:40:40.699Z,10.75
2024-01-18T02:43:11.168Z,10.90
2024-01-18T02:45:41.286Z,13.70
2024-01-18T02:48:12.330Z,7.05
2024-01-18T02:50:45.271Z,7.22
2024-01-18T02:53:15.588Z,8.05
2024-01-18T02:55:45.627Z,7.68
2024-01-18T02:58:16.493Z,9.68
2024-01-18T03:00:46.941Z,9.88
2024-01-18T03:03:17.692Z,11.90
2024-01-18T03:05:48.027Z,11.27
2024-01-18T03:08:18.666Z,12.70
2024-01-18T03:10:48.784Z,10.80
2024-01-18T03:13:19.110Z,11.88
2024-01-18T03:15:49.205Z,10.88
2024-01-18T03:18:20.186Z,9.82
2024-01-18T03:20:50.335Z,12.43
2024-01-18T03:23:21.098Z,13.90
2024-01-18T03:25:54.133Z,9.30
2024-01-18T03:28:24.397Z,10.68
2024-01-18T03:30:54.368Z,9.30
2024-01-18T03:33:24.772Z,8.95
2024-01-18T03:35:54.854Z,12.45
2024-01-18T03:38:25.183Z,9.43
2024-01-18T03:40:55.943Z,10.43
2024-01-18T03:43:26.220Z,9.80
2024-01-18T03:45:56.175Z,8.25
2024-01-18T03:48:26.496Z,13.00
2024-01-18T03:50:59.250Z,9.93
2024-01-18T03:53:29.576Z,8.57
2024-01-18T03:55:59.586Z,11.10
2024-01-18T03:58:29.810Z,12.38
2024-01-18T04:01:00.173Z,12.52
2024-01-18T04:03:30.572Z,13.52
2024-01-18T04:06:00.817Z,9.32
2024-01-18T04:08:31.232Z,8.50
2024-01-18T04:11:01.571Z,6.32
2024-01-18T04:13:32.039Z,12.75
2024-01-18T04:16:02.263Z,9.88
2024-01-18T04:18:32.765Z,9.27
2024-01-18T04:21:02.912Z,9.43
2024-01-18T04:23:33.542Z,8.70
2024-01-18T04:26:03.901Z,11.57
2024-01-18T04:28:34.233Z,9.15
2024-01-18T04:31:04.248Z,15.30
2024-01-18T04:33:34.547Z,10.07
2024-01-18T04:36:05.332Z,9.70
2024-01-18T04:38:35.632Z,18.13
2024-01-18T04:41:05.750Z,11.70
2024-01-18T04:43:36.322Z,11.73
2024-01-18T04:46:07.012Z,12.95
2024-01-18T04:48:37.503Z,13.35
2024-01-18T04:51:07.650Z,17.70
2024-01-18T04:53:38.024Z,12.90
2024-01-18T04:56:08.704Z,16.50
2024-01-18T04:58:41.038Z,19.75
2024-01-18T05:01:14.664Z,15.13
2024-01-18T05:03:44.962Z,17.42
2024-01-18T05:06:15.200Z,15.43
2024-01-18T05:08:46.255Z,17.23
2024-01-18T05:11:16.275Z,16.80
2024-01-18T05:13:47.139Z,21.38
2024-01-18T05:16:17.182Z,16.40
2024-01-18T05:18:48.347Z,12.63
2024-01-18T05:21:18.476Z,9.07
2024-01-18T05:23:51.714Z,12.93
2024-01-18T05:26:21.847Z,14.65
2024-01-18T05:28:52.073Z,6.85
2024-01-18T05:31:22.098Z,14.65
2024-01-18T05:33:52.498Z,14.65
2024-01-18T05:36:22.637Z,12.35
2024-01-18T05:38:52.964Z,11.45
2024-01-18T05:41:22.775Z,8.88
2024-01-18T05:43:53.047Z,11.88
2024-01-18T05:46:26.086Z,11.45
2024-01-18T05:48:56.412Z,9.85
2024-01-18T05:51:26.658Z,10.60
2024-01-18T05:53:57.619Z,12.10
2024-01-18T05:56:28.579Z,10.45
2024-01-18T05:58:59.032Z,14.10
2024-01-18T06:01:29.868Z,15.18
2024-01-18T06:04:00.363Z,9.27
2024-01-18T06:06:30.780Z,9.75
2024-01-18T06:09:01.253Z,10.82
2024-01-18T06:11:31.363Z,13.75
2024-01-18T06:14:01.676Z,10.68
2024-01-18T06:16:31.953Z,7.65
2024-01-18T06:19:02.275Z,6.65
2024-01-18T06:21:33.247Z,8.15
2024-01-18T06:24:04.824Z,13.65
2024-01-18T06:26:36.025Z,9.35
2024-01-18T06:29:06.559Z,8.95
2024-01-18T06:31:36.612Z,9.90
2024-01-18T06:34:07.407Z,8.45
2024-01-18T06:36:37.530Z,11.77
2024-01-18T06:39:07.960Z,7.05
2024-01-18T06:41:38.082Z,8.48
2024-01-18T06:44:11.058Z,9.02
2024-01-18T06:46:41.482Z,7.13
2024-01-18T06:49:12.456Z,4.65
2024-01-18T06:51:42.934Z,7.25
2024-01-18T06:54:13.330Z,10.05
2024-01-18T06:56:47.443Z,6.72
2024-01-18T06:59:18.967Z,7.88
2024-01-18T07:01:48.987Z,11.63
2024-01-18T07:04:19.322Z,9.00
2024-01-18T07:06:49.660Z,8.32
2024-01-18T07:09:20.042Z,11.07
2024-01-18T07:11:50.476Z,7.90
2024-01-18T07:14:21.072Z,8.65
2024-01-18T07:16:51.106Z,5.75
2024-01-18T07:19:21.573Z,7.03
2024-01-18T07:21:51.761Z,10.68
2024-01-18T07:24:25.559Z,8.35
2024-01-18T07:26:55.793Z,5.03
2024-01-18T07:29:26.245Z,6.45
2024-01-18T07:31:56.259Z,5.47
2024-01-18T07:34:26.091Z,3.95
2024-01-18T07:36:57.969Z,8.13
2024-01-18T07:39:28.020Z,8.73
2024-01-18T07:41:58.484Z,6.55
2024-01-18T07:44:28.374Z,8.93
2024-01-18T07:46:58.215Z,7.80
2024-01-18T07:49:28.478Z,4.88
2024-01-18T07:51:58.836Z,5.63
2024-01-18T07:54:30.177Z,5.38
2024-01-18T07:57:00.232Z,6.05
2024-01-18T07:59:30.469Z,16.80
2024-01-18T08:02:01.919Z,2.85
2024-01-18T08:04:32.324Z,4.80
2024-01-18T08:07:02.410Z,5.55
2024-01-18T08:09:33.461Z,3.90
2024-01-18T08:12:03.561Z,6.30
2024-01-18T08:14:33.782Z,5.95
2024-01-18T08:17:04.671Z,6.50
2024-01-18T08:19:35.109Z,4.65
2024-01-18T08:22:05.299Z,5.68
2024-01-18T08:24:35.967Z,7.50
2024-01-18T08:27:06.515Z,2.65
2024-01-18T08:29:37.824Z,4.80
2024-01-18T08:32:08.727Z,11.32
2024-01-18T08:34:40.316Z,5.85
2024-01-18T08:37:11.655Z,5.22
2024-01-18T08:39:41.989Z,4.28
2024-01-18T08:42:12.118Z,4.10
2024-01-18T08:44:48.208Z,3.25
2024-01-18T08:47:20.673Z,3.05
2024-01-18T08:49:51.733Z,4.13
2024-01-18T08:52:22.202Z,3.22
2024-01-18T08:54:53.740Z,3.50
2024-01-18T08:57:23.922Z,3.05
2024-01-18T08:59:54.321Z,7.32
2024-01-18T09:02:24.620Z,5.25
2024-01-18T09:04:55.017Z,2.88
2024-01-18T09:07:26.708Z,8.18
2024-01-18T09:09:57.085Z,5.43
2024-01-18T09:12:28.747Z,3.67
2024-01-18T09:14:59.337Z,9.13
2024-01-18T09:17:29.446Z,6.65
2024-01-18T09:19:59.830Z,12.10
2024-01-18T09:22:30.139Z,6.15
2024-01-18T09:25:01.646Z,7.05
2024-01-18T09:27:35.502Z,10.60
2024-01-18T09:30:06.489Z,9.25
2024-01-18T09:32:36.653Z,7.13
2024-01-18T09:35:07.977Z,4.45
2024-01-18T09:37:38.891Z,8.18
2024-01-18T09:40:13.932Z,4.95
2024-01-18T09:42:49.133Z,3.80
2024-01-18T09:45:24.735Z,4.45
2024-01-18T09:47:56.072Z,7.63
2024-01-18T09:50:26.896Z,5.93
2024-01-18T09:52:57.417Z,10.82
2024-01-18T09:55:28.205Z,4.05
2024-01-18T09:58:01.085Z,5.32
2024-01-18T10:00:34.142Z,6.30
2024-01-18T10:03:04.798Z,3.15
2024-01-18T10:05:34.745Z,5.63
2024-01-18T10:08:06.148Z,4.75
2024-01-18T10:10:36.356Z,7.63
2024-01-18T10:13:07.038Z,5.55
2024-01-18T10:15:37.901Z,5.40
2024-01-18T10:18:09.255Z,9.38
2024-01-18T10:20:39.613Z,3.78
2024-01-18T10:23:13.040Z,5.18
2024-01-18T10:25:46.841Z,4.93
2024-01-18T10:28:17.755Z,6.95
2024-01-18T10:30:54.152Z,7.10
2024-01-18T10:33:25.081Z,7.15
2024-01-18T10:35:55.033Z,6.68
2024-01-18T10:38:32.523Z,6.28
2024-01-18T10:41:10.218Z,5.93
2024-01-18T10:43:41.434Z,4.10
2024-01-18T10:46:12.879Z,5.40
2024-01-18T10:48:50.075Z,6.93
2024-01-18T10:51:20.094Z,5.55
2024-01-18T10:53:54.381Z,6.35
2024-01-18T10:56:26.081Z,3.53
2024-01-18T10:58:56.893Z,4.80
2024-01-18T11:01:27.478Z,4.07
2024-01-18T11:03:58.274Z,3.35
2024-01-18T11:06:30.683Z,5.60
2024-01-18T11:09:01.719Z,5.57
2024-01-18T11:11:33.457Z,6.05
2024-01-18T11:16:33.960Z,3.90
2024-01-18T11:19:04.364Z,3.35
2024-01-18T11:21:46.881Z,3.80
2024-01-18T11:24:18.002Z,5.13
2024-01-18T11:26:47.890Z,7.55
2024-01-18T11:29:22.038Z,5.13
2024-01-18T11:31:53.553Z,3.15
2024-01-18T11:34:39.702Z,3.78
2024-01-18T11:37:20.922Z,6.20
2024-01-18T11:39:54.700Z,2.63
2024-01-18T11:42:35.642Z,4.15
2024-01-18T11:45:22.142Z,4.07
2024-01-18T11:47:53.974Z,5.90
2024-01-18T11:50:24.158Z,1.70
2024-01-18T11:52:54.506Z,1.70
2024-01-18T11:55:26.714Z,4.63
2024-01-18T11:57:59.704Z,5.63
2024-01-18T12:00:31.245Z,8.23
2024-01-18T12:03:05.600Z,8.15
2024-01-18T12:05:38.898Z,6.35
2024-01-18T12:08:10.649Z,5.03
2024-01-18T12:10:41.015Z,6.45
2024-01-18T12:13:11.466Z,5.53
2024-01-18T12:15:43.547Z,3.75
2024-01-18T12:18:14.075Z,5.05
2024-01-18T12:20:45.767Z,7.38
2024-01-18T12:25:48.331Z,4.32
2024-01-18T12:28:19.097Z,6.22
2024-01-18T12:30:50.810Z,5.38
2024-01-18T12:33:21.871Z,8.20
2024-01-18T12:35:52.523Z,6.03
2024-01-18T12:38:22.803Z,4.43
2024-01-18T12:40:53.079Z,6.10
2024-01-18T12:43:23.685Z,5.10
2024-01-18T12:46:00.046Z,5.60
2024-01-18T12:48:31.414Z,6.45
2024-01-18T12:51:01.723Z,5.53
2024-01-18T12:53:32.084Z,7.05
2024-01-18T12:56:02.921Z,6.03
2024-01-18T12:58:33.744Z,6.00
2024-01-18T13:01:04.057Z,4.78
2024-01-18T13:03:34.620Z,5.22
2024-01-18T13:06:05.157Z,5.80
2024-01-18T13:08:40.162Z,5.63
2024-01-18T13:11:10.486Z,2.92
2024-01-18T13:13:40.944Z,6.38
2024-01-18T13:16:10.952Z,4.25
2024-01-18T13:18:41.423Z,6.60
2024-01-18T13:21:11.544Z,3.85
2024-01-18T13:23:41.909Z,2.78
2024-01-18T13:26:12.056Z,2.55
2024-01-18T13:28:44.493Z,3.42
2024-01-18T13:31:15.404Z,2.40
2024-01-18T13:33:45.798Z,5.35
2024-01-18T13:36:16.006Z,5.35
2024-01-18T13:38:46.291Z,5.13
2024-01-18T13:41:16.196Z,4.47
2024-01-18T13:43:48.191Z,4.10
2024-01-18T13:46:18.376Z,4.53
2024-01-18T13:48:48.732Z,4.45
2024-01-18T13:51:18.912Z,4.40
2024-01-18T13:53:53.553Z,4.40
2024-01-18T13:56:24.903Z,4.13
2024-01-18T13:58:56.255Z,2.13
2024-01-18T14:01:26.360Z,3.15
2024-01-18T14:03:56.730Z,2.95
2024-01-18T14:06:27.931Z,2.15
2024-01-18T14:08:59.779Z,1.73
2024-01-18T14:11:30.787Z,1.95
2024-01-18T14:14:01.147Z,2.33
2024-01-18T14:16:31.716Z,2.78
2024-01-18T14:19:02.174Z,1.35
2024-01-18T14:21:32.270Z,2.13
2024-01-18T14:24:02.597Z,2.25
2024-01-18T14:26:32.778Z,3.20
2024-01-18T14:29:04.079Z,1.30
2024-01-18T14:31:34.260Z,1.50
2024-01-18T14:34:04.930Z,2.33
2024-01-18T14:36:35.051Z,2.00
2024-01-18T14:39:06.405Z,2.35
2024-01-18T14:41:36.383Z,2.17
2024-01-18T14:44:06.975Z,2.88
2024-01-18T14:46:38.828Z,2.53
2024-01-18T14:49:09.394Z,3.25
2024-01-18T14:51:39.496Z,2.45
2024-01-18T14:54:09.802Z,1.83
2024-01-18T14:56:39.782Z,3.88
2024-01-18T14:59:10.026Z,2.55
2024-01-18T15:01:41.952Z,4.13
2024-01-18T15:06:47.983Z,2.65
2024-01-18T15:09:18.582Z,2.50
2024-01-18T15:11:48.561Z,3.15
2024-01-18T15:14:19.248Z,2.53
2024-01-18T15:16:49.247Z,2.38
2024-01-18T15:19:19.978Z,3.35
2024-01-18T15:21:53.521Z,2.78
2024-01-18T15:24:23.897Z,1.75
2024-01-18T15:26:53.996Z,2.13
2024-01-18T15:29:25.234Z,1.60
2024-01-18T15:31:58.696Z,2.65
2024-01-18T15:34:32.097Z,2.88
2024-01-18T15:37:04.061Z,1.90
2024-01-18T15:39:34.490Z,3.35
2024-01-18T15:42:05.637Z,3.25
2024-01-18T15:44:35.919Z,3.05
2024-01-18T15:47:07.339Z,3.47
2024-01-18T15:49:37.628Z,2.42
2024-01-18T15:52:08.088Z,2.50
2024-01-18T15:54:38.845Z,2.35
2024-01-18T15:57:09.635Z,1.80
2024-01-18T15:59:40.105Z,1.08
2024-01-18T16:02:10.148Z,3.03
2024-01-18T16:04:43.520Z,1.95
2024-01-18T16:07:13.625Z,3.08
2024-01-18T16:09:43.985Z,4.07
2024-01-18T16:12:14.045Z,2.60
2024-01-18T16:14:48.574Z,1.83
2024-01-18T16:17:19.090Z,4.43
2024-01-18T16:19:49.387Z,2.67
2024-01-18T16:22:20.162Z,3.90
2024-01-18T16:24:50.763Z,2.13
2024-01-18T16:27:20.811Z,2.17
2024-01-18T16:30:01.365Z,1.80
2024-01-18T16:32:37.251Z,3.45
2024-01-18T16:35:07.614Z,1.73
2024-01-18T16:37:38.184Z,3.47
2024-01-18T16:40:09.227Z,1.77
2024-01-18T16:42:39.664Z,4.00
2024-01-18T16:45:12.629Z,1.35
2024-01-18T16:47:43.151Z,3.38
2024-01-18T16:50:13.012Z,1.52
2024-01-18T16:52:42.900Z,2.38
2024-01-18T16:55:13.307Z,4.65
2024-01-18T16:57:44.777Z,3.10
2024-01-18T17:00:16.271Z,1.92
2024-01-18T17:02:46.681Z,3.70
2024-01-18T17:05:17.259Z,2.05
2024-01-18T17:07:47.336Z,1.75
2024-01-18T17:10:19.297Z,2.25
2024-01-18T17:15:18.612Z,3.05
2024-01-18T17:17:49.256Z,2.03
2024-01-18T17:20:19.552Z,3.58
2024-01-18T17:22:50.085Z,2.97
2024-01-18T17:25:19.784Z,3.70
2024-01-18T17:27:50.245Z,3.58
2024-01-18T17:30:22.132Z,2.25
2024-01-18T17:32:52.908Z,3.95
2024-01-18T17:35:22.798Z,3.17
2024-01-18T17:37:53.248Z,2.95
2024-01-18T17:40:24.077Z,1.95
2024-01-18T17:42:54.783Z,4.30
2024-01-18T17:45:24.669Z,1.48
2024-01-18T17:47:55.326Z,2.60
2024-01-18T17:50:25.427Z,2.13
2024-01-18T17:52:55.897Z,2.50
2024-01-18T17:55:25.747Z,1.90
2024-01-18T17:57:56.205Z,2.67
2024-01-18T18:00:30.181Z,2.88
2024-01-18T18:03:07.112Z,2.08
2024-01-18T18:05:38.176Z,3.78
2024-01-18T18:08:09.015Z,2.17
2024-01-18T18:10:39.335Z,2.53
2024-01-18T18:13:10.447Z,4.03
2024-01-18T18:15:45.133Z,3.33
2024-01-18T18:18:21.099Z,2.42
2024-01-18T18:20:53.873Z,1.90
2024-01-18T18:23:24.268Z,3.88
2024-01-18T18:25:53.964Z,4.25
2024-01-18T18:28:24.426Z,3.63
2024-01-18T18:30:58.357Z,2.15
2024-01-18T18:33:30.368Z,4.57
2024-01-18T18:36:00.331Z,2.15
2024-01-18T18:38:33.291Z,4.32
2024-01-18T18:41:05.307Z,3.40
2024-01-18T18:43:35.711Z,2.50
2024-01-18T18:46:06.783Z,3.67
2024-01-18T18:48:37.982Z,4.03
2024-01-18T18:51:09.875Z,3.90
2024-01-18T18:53:39.950Z,1.90
2024-01-18T18:56:11.250Z,3.60
2024-01-18T18:58:41.248Z,2.67
2024-01-18T19:01:10.932Z,3.55
2024-01-18T19:03:42.515Z,4.70
2024-01-18T19:06:13.158Z,5.13
2024-01-18T19:08:44.131Z,2.67
2024-01-18T19:11:14.052Z,4.45
2024-01-18T19:13:44.553Z,2.35
2024-01-18T19:16:14.442Z,3.95
2024-01-18T19:18:46.311Z,2.95
2024-01-18T19:21:16.632Z,5.65
2024-01-18T19:23:46.768Z,3.38
2024-01-18T19:26:17.150Z,4.57
2024-01-18T19:28:47.296Z,2.35
2024-01-18T19:31:17.587Z,4.60
2024-01-18T19:33:48.384Z,4.68
2024-01-18T19:36:19.212Z,2.72
2024-01-18T19:38:49.275Z,1.60
2024-01-18T19:41:19.582Z,2.90
2024-01-18T19:43:49.753Z,3.42
2024-01-18T19:46:19.968Z,2.13
2024-01-18T19:48:50.020Z,3.65
2024-01-18T19:51:20.339Z,6.32
2024-01-18T19:53:50.350Z,7.18
2024-01-18T19:56:20.791Z,5.43
2024-01-18T19:58:50.856Z,6.72
2024-01-18T20:01:21.356Z,7.72
2024-01-18T20:03:51.399Z,7.00
2024-01-18T20:06:21.767Z,7.40
2024-01-18T20:08:51.989Z,4.82
2024-01-18T20:11:22.372Z,7.25
2024-01-18T20:13:52.463Z,7.90
2024-01-18T20:16:22.766Z,4.78
2024-01-18T20:18:54.036Z,4.43
2024-01-18T20:21:24.413Z,4.95
2024-01-18T20:24:01.349Z,3.28
2024-01-18T20:26:31.847Z,3.50
2024-01-18T20:29:02.354Z,4.30
2024-01-18T20:31:33.149Z,5.95
2024-01-18T20:34:04.259Z,3.67
2024-01-18T20:36:34.698Z,3.67
2024-01-18T20:39:05.541Z,5.80
2024-01-18T20:41:36.094Z,4.30
2024-01-18T20:44:06.356Z,6.32
2024-01-18T20:46:41.983Z,3.17
2024-01-18T20:49:13.778Z,5.50
2024-01-18T20:51:48.188Z,6.75
2024-01-18T20:54:19.303Z,4.03
2024-01-18T20:56:50.392Z,6.35
2024-01-18T20:59:23.671Z,8.45
2024-01-18T21:01:57.691Z,6.72
2024-01-18T21:04:29.477Z,6.78
2024-01-18T21:06:59.888Z,5.93
2024-01-18T21:09:30.174Z,5.97
2024-01-18T21:12:00.735Z,6.78
2024-01-18T21:14:33.668Z,8.18
2024-01-18T21:17:06.784Z,4.78
2024-01-18T21:19:36.804Z,7.18
2024-01-18T21:22:06.757Z,10.00
2024-01-18T21:24:37.190Z,6.25
2024-01-18T21:27:07.090Z,8.60
2024-01-18T21:29:37.552Z,7.72
2024-01-18T21:32:07.757Z,6.85
2024-01-18T21:34:39.617Z,6.63
2024-01-18T21:37:09.682Z,9.85
2024-01-18T21:39:40.066Z,10.27
2024-01-18T21:42:10.274Z,7.35
2024-01-18T21:44:40.947Z,9.50
2024-01-18T21:47:11.614Z,7.93
2024-01-18T21:49:42.347Z,6.70
2024-01-18T21:52:13.700Z,6.22
2024-01-18T21:57:16.182Z,7.30
2024-01-18T21:59:47.353Z,9.75
2024-01-18T22:02:17.950Z,8.70
2024-01-18T22:04:50.191Z,9.35
2024-01-18T22:07:20.258Z,7.97
2024-01-18T22:09:50.821Z,11.75
2024-01-18T22:12:21.047Z,8.38
2024-01-18T22:14:51.640Z,9.10
2024-01-18T22:17:22.285Z,9.63
2024-01-18T22:20:01.041Z,10.57
2024-01-18T22:22:34.867Z,8.38
2024-01-18T22:25:05.701Z,8.90
2024-01-18T22:27:35.658Z,7.90
2024-01-18T22:30:08.686Z,6.43
2024-01-18T22:32:38.688Z,9.63
2024-01-18T22:35:12.728Z,9.68
2024-01-18T22:37:43.411Z,6.70
2024-01-18T22:40:14.189Z,8.68
2024-01-18T22:42:45.228Z,8.02
2024-01-18T22:45:16.531Z,9.18
2024-01-18T22:47:46.479Z,8.45
2024-01-18T22:50:17.226Z,14.45
2024-01-18T22:52:47.285Z,9.23
2024-01-18T22:55:17.750Z,15.77
2024-01-18T22:57:47.584Z,11.20
2024-01-18T23:00:19.441Z,7.95
2024-01-18T23:02:49.870Z,12.13
2024-01-18T23:05:21.020Z,10.85
2024-01-18T23:07:54.176Z,11.63
2024-01-18T23:10:24.561Z,10.05
2024-01-18T23:12:54.643Z,11.60
2024-01-18T23:15:25.416Z,13.68
2024-01-18T23:17:55.865Z,13.10
2024-01-18T23:20:27.027Z,12.00
2024-01-18T23:22:59.904Z,12.70
2024-01-18T23:25:30.955Z,13.05
2024-01-18T23:28:01.519Z,15.63
2024-01-18T23:30:32.404Z,12.38
2024-01-18T23:33:02.613Z,13.10
2024-01-18T23:35:36.271Z,13.00
2024-01-18T23:38:09.323Z,17.63
2024-01-18T23:40:39.709Z,14.52
2024-01-18T23:43:09.872Z,14.30
2024-01-18T23:45:40.298Z,15.15
2024-01-18T23:48:10.764Z,16.15
2024-01-18T23:50:41.251Z,14.38
2024-01-18T23:53:13.870Z,11.63
2024-01-18T23:55:44.339Z,13.60
2024-01-18T23:58:14.282Z,12.43
